Airfield :







YOU CAN JOIN US ON...

 
LOGIN :

Register | Disclaimer

   EN    FR    IT 

 









Legend :    VFR   Marginal VFR   IFR   Intensive IFR   Very Intensive IFR
Visi :
Ceiling :
>= 8 km
>= 3000ft
5 to 8 km
1000 to 3000 ft
1500m to 5 km
500 to 1000 ft
800 to 1500m
200 to 500 ft
< 800m
< 200 ft
Symbols :   Thunderstorms  Fog  Heavy snow  Heavy precipitations  Wind > 20 kt







- Airport Elevation : 930 ft


KEFK - Newport State

CURRENT METAR :
  • 171856Z AUTO 25008G15KT 4SM RA SCT017 BKN028 OVC050 23/22 A2989 RMK AO2 T02300217

EXPIRED METARs :
  • 171836Z AUTO 22005KT 10SM SCT028 BKN040 BKN050 25/22 A2989 RMK AO2 T02540218
  • 171816Z AUTO 20005KT 10SM BKN026 BKN040 OVC090 26/22 A2989 RMK AO2 T02550220
  • 171757Z AUTO 21006KT 10SM SCT026 SCT032 BKN040 26/22 A2989 RMK AO2 T02570218 10257 20197
  • 171736Z AUTO 19003KT 10SM SCT023 BKN028 OVC034 25/21 A2989 RMK AO2 T02520214
  • 171716Z AUTO 21005KT 10SM SCT022 BKN026 OVC041 25/22 A2989 RMK AO2 T02470216
  • 171656Z AUTO 17005KT 10SM SCT024 SCT036 BKN047 25/21 A2989 RMK AO2 T02530214
  • 171637Z AUTO 17004KT 10SM SCT019 SCT028 BKN039 25/22 A2989 RMK AO2 T02480220
  • 171616Z AUTO 22006KT 10SM SCT014 SCT019 OVC040 24/22 A2990 RMK AO2 T02400217

TAF N/A
KZBW FIR / North America



MET'MAP, your aeronautical weather chart ! - Copyright ORBIFLY December 2007 - Disclaimer

ORBIFLY MET'MAP TEAM :

Programming & Development : Alexandra Zaïnal
Concept & Development : Baudouin d'Aumeries
Co-Development & Prog : Marc-Olivier Méhu
Technical & hardware support : Manuel Goepfert

Contact : metmap@orbifly.com




SOURCES & CREDITS :

   NOAA